createdAt,value
2023-03-15T00:01:33.423Z,3.78
2023-03-15T00:04:01.105Z,3.75
2023-03-15T00:06:28.673Z,3.50
2023-03-15T00:08:56.485Z,3.22
2023-03-15T00:11:27.161Z,3.53
2023-03-15T00:13:57.856Z,3.67
2023-03-15T00:16:27.085Z,4.13
2023-03-15T00:18:55.453Z,3.38
2023-03-15T00:21:22.877Z,3.78
2023-03-15T00:23:50.410Z,4.57
2023-03-15T00:26:21.667Z,3.95
2023-03-15T00:28:49.652Z,3.60
2023-03-15T00:31:24.792Z,3.08
2023-03-15T00:33:55.571Z,3.55
2023-03-15T00:36:23.681Z,3.10
2023-03-15T00:38:54.045Z,3.20
2023-03-15T00:41:21.720Z,2.95
2023-03-15T00:43:50.314Z,3.60
2023-03-15T00:46:17.977Z,3.30
2023-03-15T00:48:48.335Z,3.30
2023-03-15T00:51:17.477Z,3.60
2023-03-15T00:53:45.228Z,3.28
2023-03-15T00:56:17.938Z,4.00
2023-03-15T00:58:45.278Z,4.45
2023-03-15T01:01:17.487Z,3.83
2023-03-15T01:03:47.892Z,3.60
2023-03-15T01:06:19.498Z,4.00
2023-03-15T01:08:46.880Z,3.78
2023-03-15T01:11:17.232Z,3.70
2023-03-15T01:13:44.942Z,3.38
2023-03-15T01:16:13.164Z,3.47
2023-03-15T01:18:42.067Z,3.28
2023-03-15T01:21:10.410Z,4.10
2023-03-15T01:23:38.119Z,3.75
2023-03-15T01:26:06.803Z,3.25
2023-03-15T01:28:34.641Z,3.65
2023-03-15T01:31:01.945Z,3.70
2023-03-15T01:33:29.723Z,3.00
2023-03-15T01:36:00.120Z,3.05
2023-03-15T01:38:27.838Z,3.88
2023-03-15T01:40:55.265Z,2.97
2023-03-15T01:43:23.560Z,3.28
2023-03-15T01:46:04.499Z,3.08
2023-03-15T01:48:38.880Z,3.30
2023-03-15T01:51:13.726Z,2.63
2023-03-15T01:53:41.627Z,2.92
2023-03-15T01:56:11.266Z,3.05
2023-03-15T01:58:39.445Z,3.22
2023-03-15T02:01:07.318Z,2.55
2023-03-15T02:03:37.316Z,3.35
2023-03-15T02:06:07.449Z,3.00
2023-03-15T02:08:41.907Z,3.28
2023-03-15T02:11:09.212Z,2.42
2023-03-15T02:13:38.086Z,2.22
2023-03-15T02:16:06.996Z,2.70
2023-03-15T02:18:37.052Z,2.97
2023-03-15T02:21:29.190Z,2.08
2023-03-15T02:24:21.378Z,2.88
2023-03-15T02:26:56.826Z,2.42
2023-03-15T02:29:24.873Z,2.28
2023-03-15T02:31:53.302Z,2.00
2023-03-15T02:34:25.377Z,2.03
2023-03-15T02:36:54.050Z,2.38
2023-03-15T02:39:21.670Z,2.70
2023-03-15T02:41:51.998Z,2.20
2023-03-15T02:44:20.204Z,2.38
2023-03-15T02:46:48.635Z,2.20
2023-03-15T02:49:17.081Z,2.63
2023-03-15T02:51:45.397Z,2.40
2023-03-15T02:54:12.656Z,2.40
2023-03-15T02:59:12.916Z,2.60
2023-03-15T03:01:40.451Z,2.38
2023-03-15T03:04:08.352Z,2.50
2023-03-15T03:06:35.673Z,2.60
2023-03-15T03:09:04.299Z,2.42
2023-03-15T03:11:31.940Z,2.83
2023-03-15T03:13:59.248Z,2.92
2023-03-15T03:16:27.857Z,2.97
2023-03-15T03:18:55.759Z,2.28
2023-03-15T03:21:26.618Z,2.20
2023-03-15T03:23:54.785Z,2.45
2023-03-15T03:26:22.022Z,2.45
2023-03-15T03:28:50.146Z,2.55
2023-03-15T03:31:22.340Z,2.58
2023-03-15T03:33:56.095Z,2.38
2023-03-15T03:36:24.946Z,2.42
2023-03-15T03:38:52.571Z,2.25
2023-03-15T03:41:20.000Z,2.58
2023-03-15T03:43:47.759Z,2.47
2023-03-15T03:46:17.441Z,2.75
2023-03-15T03:48:44.709Z,2.30
2023-03-15T03:51:11.975Z,2.72
2023-03-15T03:53:39.338Z,2.17
2023-03-15T03:56:07.064Z,2.38
2023-03-15T03:58:34.809Z,2.85
2023-03-15T04:01:02.304Z,2.67
2023-03-15T04:03:29.911Z,2.58
2023-03-15T04:05:59.422Z,2.53
2023-03-15T04:08:26.903Z,2.28
2023-03-15T04:10:56.683Z,2.10
2023-03-15T04:13:24.919Z,2.40
2023-03-15T04:15:52.410Z,2.25
2023-03-15T04:18:25.585Z,2.35
2023-03-15T04:20:54.892Z,2.70
2023-03-15T04:23:22.671Z,2.00
2023-03-15T04:25:50.883Z,1.98
2023-03-15T04:28:18.846Z,2.55
2023-03-15T04:30:47.915Z,2.40
2023-03-15T04:33:15.610Z,2.83
2023-03-15T04:35:43.027Z,2.53
2023-03-15T04:38:11.097Z,3.38
2023-03-15T04:40:39.078Z,2.72
2023-03-15T04:43:06.473Z,3.92
2023-03-15T04:45:35.621Z,3.45
2023-03-15T04:48:03.235Z,4.13
2023-03-15T04:50:31.384Z,4.30
2023-03-15T04:52:59.667Z,3.85
2023-03-15T04:55:30.644Z,3.90
2023-03-15T04:57:58.681Z,3.65
2023-03-15T05:00:26.230Z,3.83
2023-03-15T05:02:55.215Z,3.90
2023-03-15T05:05:23.707Z,3.17
2023-03-15T05:07:52.374Z,3.30
2023-03-15T05:10:21.264Z,3.28
2023-03-15T05:12:49.092Z,2.55
2023-03-15T05:15:18.131Z,3.25
2023-03-15T05:17:46.440Z,2.63
2023-03-15T05:20:14.869Z,2.05
2023-03-15T05:25:12.316Z,2.50
2023-03-15T05:27:40.129Z,2.78
2023-03-15T05:30:08.618Z,2.55
2023-03-15T05:32:39.508Z,2.65
2023-03-15T05:35:07.325Z,2.85
2023-03-15T05:37:35.812Z,2.53
2023-03-15T05:40:04.686Z,2.50
2023-03-15T05:42:32.187Z,2.50
2023-03-15T05:45:00.495Z,2.65
2023-03-15T05:47:28.286Z,2.42
2023-03-15T05:49:55.475Z,2.60
2023-03-15T05:52:22.895Z,2.33
2023-03-15T05:54:50.225Z,2.20
2023-03-15T05:57:23.949Z,2.45
2023-03-15T05:59:51.365Z,2.25
2023-03-15T06:02:19.098Z,2.63
2023-03-15T06:04:46.447Z,2.08
2023-03-15T06:07:14.112Z,2.45
2023-03-15T06:09:44.742Z,2.13
2023-03-15T06:12:12.114Z,2.30
2023-03-15T06:14:39.624Z,2.22
2023-03-15T06:17:08.872Z,2.30
2023-03-15T06:19:37.843Z,2.40
2023-03-15T06:22:05.979Z,2.22
2023-03-15T06:24:35.961Z,2.40
2023-03-15T06:27:03.320Z,2.60
2023-03-15T06:29:30.586Z,2.10
2023-03-15T06:31:57.819Z,2.13
2023-03-15T06:34:25.411Z,2.35
2023-03-15T06:36:53.105Z,2.72
2023-03-15T06:39:21.153Z,2.65
2023-03-15T06:41:48.387Z,2.72
2023-03-15T06:44:15.650Z,2.38
2023-03-15T06:46:42.955Z,2.63
2023-03-15T06:49:12.564Z,2.70
2023-03-15T06:51:42.626Z,3.17
2023-03-15T06:54:09.965Z,2.70
2023-03-15T06:56:39.138Z,2.60
2023-03-15T06:59:07.540Z,2.67
2023-03-15T07:01:36.788Z,2.75
2023-03-15T07:04:04.829Z,3.10
2023-03-15T07:06:33.542Z,2.83
2023-03-15T07:09:00.851Z,2.55
2023-03-15T07:11:28.893Z,2.75
2023-03-15T07:13:56.155Z,2.70
2023-03-15T07:16:23.857Z,2.92
2023-03-15T07:18:51.461Z,2.97
2023-03-15T07:21:19.345Z,2.95
2023-03-15T07:23:46.565Z,2.97
2023-03-15T07:26:14.068Z,3.15
2023-03-15T07:28:49.041Z,3.05
2023-03-15T07:31:17.753Z,2.80
2023-03-15T07:33:45.000Z,2.92
2023-03-15T07:36:12.492Z,3.35
2023-03-15T07:38:43.210Z,3.47
2023-03-15T07:41:15.604Z,3.15
2023-03-15T07:43:44.830Z,3.00
2023-03-15T07:46:12.174Z,3.58
2023-03-15T07:48:39.648Z,3.10
2023-03-15T07:51:06.953Z,3.30
2023-03-15T07:53:35.364Z,3.10
2023-03-15T07:56:02.760Z,3.05
2023-03-15T07:58:30.274Z,2.88
2023-03-15T08:00:59.196Z,3.05
2023-03-15T08:03:27.131Z,3.60
2023-03-15T08:05:54.482Z,3.38
2023-03-15T08:08:21.700Z,2.90
2023-03-15T08:10:49.072Z,3.70
2023-03-15T08:13:18.357Z,3.38
2023-03-15T08:15:46.793Z,3.95
2023-03-15T08:18:16.415Z,4.03
2023-03-15T08:20:44.022Z,3.92
2023-03-15T08:23:16.524Z,3.47
2023-03-15T08:25:44.162Z,2.90
2023-03-15T08:28:11.708Z,4.10
2023-03-15T08:30:39.188Z,4.15
2023-03-15T08:33:08.033Z,4.20
2023-03-15T08:35:36.942Z,3.47
2023-03-15T08:38:07.239Z,3.97
2023-03-15T08:40:35.102Z,3.60
2023-03-15T08:43:02.310Z,3.75
2023-03-15T08:45:37.424Z,4.07
2023-03-15T08:48:14.374Z,3.50
2023-03-15T08:50:42.792Z,3.72
2023-03-15T08:53:11.096Z,4.60
2023-03-15T08:55:38.941Z,3.55
2023-03-15T08:58:06.653Z,4.50
2023-03-15T09:00:34.047Z,3.75
2023-03-15T09:03:01.597Z,4.93
2023-03-15T09:05:29.966Z,4.55
2023-03-15T09:07:57.308Z,4.80
2023-03-15T09:10:24.663Z,4.57
2023-03-15T09:12:53.744Z,5.78
2023-03-15T09:15:22.008Z,4.75
2023-03-15T09:17:51.719Z,5.68
2023-03-15T09:20:21.927Z,5.70
2023-03-15T09:22:56.475Z,6.22
2023-03-15T09:27:51.884Z,4.20
2023-03-15T09:30:20.108Z,7.72
2023-03-15T09:32:47.853Z,6.22
2023-03-15T09:35:16.860Z,6.07
2023-03-15T09:37:44.471Z,4.68
2023-03-15T09:40:21.044Z,4.20
2023-03-15T09:43:06.706Z,8.35
2023-03-15T09:46:07.365Z,5.68
2023-03-15T09:48:54.663Z,4.50
2023-03-15T09:51:32.146Z,7.00
2023-03-15T09:54:08.568Z,5.72
2023-03-15T09:56:38.370Z,5.97
2023-03-15T09:59:05.816Z,7.60
2023-03-15T10:01:38.790Z,4.47
2023-03-15T10:04:26.619Z,8.27
2023-03-15T10:06:56.322Z,7.30
2023-03-15T10:09:26.830Z,4.35
2023-03-15T10:12:04.904Z,8.82
2023-03-15T10:14:39.829Z,4.18
2023-03-15T10:17:34.221Z,4.47
2023-03-15T10:20:09.734Z,8.68
2023-03-15T10:22:38.054Z,6.43
2023-03-15T10:25:23.588Z,4.57
2023-03-15T10:27:54.157Z,5.15
2023-03-15T10:30:23.553Z,6.10
2023-03-15T10:33:13.315Z,6.50
2023-03-15T10:35:42.853Z,4.55
2023-03-15T10:38:21.767Z,8.65
2023-03-15T10:40:53.793Z,6.32
2023-03-15T10:43:32.461Z,6.55
2023-03-15T10:46:10.401Z,10.07
2023-03-15T10:48:39.343Z,6.88
2023-03-15T10:51:21.502Z,7.43
2023-03-15T10:53:54.066Z,9.63
2023-03-15T10:56:25.853Z,9.02
2023-03-15T10:59:09.517Z,5.03
2023-03-15T11:01:39.323Z,8.18
2023-03-15T11:04:06.524Z,5.93
2023-03-15T11:06:42.083Z,5.43
2023-03-15T11:09:17.993Z,6.75
2023-03-15T11:12:30.777Z,5.78
2023-03-15T11:15:04.185Z,6.35
2023-03-15T11:17:34.471Z,5.07
2023-03-15T11:20:13.387Z,5.20
2023-03-15T11:22:47.614Z,8.65
2023-03-15T11:25:15.612Z,4.70
2023-03-15T11:27:51.125Z,5.82
2023-03-15T11:30:19.023Z,6.00
2023-03-15T11:32:47.944Z,7.78
2023-03-15T11:35:41.224Z,7.30
2023-03-15T11:38:33.548Z,8.60
2023-03-15T11:41:01.733Z,7.93
2023-03-15T11:43:47.542Z,4.70
2023-03-15T11:46:21.266Z,7.15
2023-03-15T11:49:04.540Z,8.70
2023-03-15T11:51:33.698Z,4.60
2023-03-15T11:54:13.744Z,6.55
2023-03-15T11:57:01.679Z,5.47
2023-03-15T11:59:29.345Z,5.15
2023-03-15T12:02:05.981Z,5.70
2023-03-15T12:04:33.238Z,5.35
2023-03-15T12:07:20.428Z,5.97
2023-03-15T12:09:52.630Z,5.15
2023-03-15T12:12:24.677Z,5.22
2023-03-15T12:15:16.558Z,6.25
2023-03-15T12:17:58.953Z,7.05
2023-03-15T12:21:09.038Z,7.30
2023-03-15T12:23:43.298Z,8.82
2023-03-15T12:26:24.200Z,5.93
2023-03-15T12:28:52.789Z,6.82
2023-03-15T12:31:20.271Z,8.18
2023-03-15T12:33:52.762Z,6.03
2023-03-15T12:36:53.497Z,9.05
2023-03-15T12:39:40.951Z,6.82
2023-03-15T12:42:33.720Z,7.20
2023-03-15T12:45:20.347Z,9.77
2023-03-15T12:47:50.284Z,9.02
2023-03-15T12:50:36.375Z,8.60
2023-03-15T12:53:27.804Z,9.52
2023-03-15T12:56:06.116Z,10.80
2023-03-15T12:58:37.550Z,8.38
2023-03-15T13:01:06.369Z,6.65
2023-03-15T13:03:36.984Z,8.75
2023-03-15T13:06:22.455Z,7.53
2023-03-15T13:09:02.730Z,7.50
2023-03-15T13:11:53.336Z,7.40
2023-03-15T13:14:43.157Z,10.15
2023-03-15T13:17:35.338Z,11.00
2023-03-15T13:20:13.737Z,9.48
2023-03-15T13:23:10.829Z,9.75
2023-03-15T13:25:50.907Z,9.18
2023-03-15T13:28:27.777Z,9.10
2023-03-15T13:30:55.691Z,8.20
2023-03-15T13:33:32.854Z,8.20
2023-03-15T13:36:04.680Z,6.68
2023-03-15T13:38:35.416Z,8.77
2023-03-15T13:41:05.909Z,9.40
2023-03-15T13:43:35.439Z,10.45
2023-03-15T13:46:03.220Z,8.02
2023-03-15T13:48:32.568Z,8.93
2023-03-15T13:51:22.890Z,10.60
2023-03-15T13:53:52.870Z,8.88
2023-03-15T13:56:32.666Z,10.02
2023-03-15T13:59:05.412Z,11.00
2023-03-15T14:01:35.600Z,8.05
2023-03-15T14:04:06.211Z,7.80
2023-03-15T14:06:34.316Z,6.65
2023-03-15T14:09:07.704Z,8.05
2023-03-15T14:11:40.820Z,6.55
2023-03-15T14:14:25.149Z,7.82
2023-03-15T14:17:04.986Z,10.82
2023-03-15T14:19:35.267Z,10.43
2023-03-15T14:22:05.042Z,10.43
2023-03-15T14:24:38.436Z,7.68
2023-03-15T14:27:14.659Z,6.47
2023-03-15T14:29:54.381Z,10.02
2023-03-15T14:32:28.653Z,7.45
2023-03-15T14:35:02.532Z,7.50
2023-03-15T14:37:41.699Z,6.50
2023-03-15T14:40:15.749Z,9.40
2023-03-15T14:42:46.114Z,8.27
2023-03-15T14:45:13.707Z,7.80
2023-03-15T14:47:57.924Z,7.43
2023-03-15T14:50:28.701Z,10.60
2023-03-15T14:52:57.071Z,6.03
2023-03-15T14:55:27.755Z,6.60
2023-03-15T14:57:55.945Z,6.35
2023-03-15T15:00:25.579Z,5.07
2023-03-15T15:02:54.824Z,6.25
2023-03-15T15:05:35.258Z,4.80
2023-03-15T15:08:14.935Z,6.95
2023-03-15T15:10:44.170Z,7.63
2023-03-15T15:13:21.258Z,7.32
2023-03-15T15:15:55.787Z,7.32
2023-03-15T15:18:31.698Z,6.18
2023-03-15T15:21:27.458Z,5.53
2023-03-15T15:23:58.856Z,5.22
2023-03-15T15:26:28.957Z,5.10
2023-03-15T15:28:57.882Z,6.53
2023-03-15T15:31:26.213Z,5.93
2023-03-15T15:33:54.898Z,6.20
2023-03-15T15:36:25.321Z,5.75
2023-03-15T15:38:52.551Z,7.32
2023-03-15T15:41:25.183Z,8.05
2023-03-15T15:43:55.455Z,8.85
2023-03-15T15:46:23.902Z,8.07
2023-03-15T15:48:52.298Z,6.72
2023-03-15T15:51:31.260Z,7.63
2023-03-15T15:53:59.826Z,6.22
2023-03-15T15:56:31.061Z,6.20
2023-03-15T15:58:58.945Z,6.75
2023-03-15T16:01:26.445Z,5.22
2023-03-15T16:03:53.745Z,5.75
2023-03-15T16:06:21.645Z,5.75
2023-03-15T16:08:50.174Z,6.65
2023-03-15T16:11:24.484Z,6.75
2023-03-15T16:13:54.027Z,6.40
2023-03-15T16:16:21.572Z,6.10
2023-03-15T16:18:48.938Z,6.90
2023-03-15T16:21:23.611Z,6.60
2023-03-15T16:23:55.896Z,5.85
2023-03-15T16:26:23.283Z,7.35
2023-03-15T16:28:52.035Z,8.88
2023-03-15T16:31:22.468Z,7.28
2023-03-15T16:33:52.671Z,8.02
2023-03-15T16:36:21.384Z,7.95
2023-03-15T16:38:48.882Z,7.57
2023-03-15T16:41:16.440Z,11.65
2023-03-15T16:43:44.587Z,5.68
2023-03-15T16:46:14.060Z,6.75
2023-03-15T16:48:43.620Z,5.05
2023-03-15T16:51:12.420Z,6.18
2023-03-15T16:53:39.826Z,5.55
2023-03-15T16:56:10.248Z,5.68
2023-03-15T16:58:42.550Z,4.93
2023-03-15T17:01:11.061Z,4.45
2023-03-15T17:03:38.584Z,6.20
2023-03-15T17:06:06.366Z,5.68
2023-03-15T17:08:34.262Z,4.90
2023-03-15T17:11:01.673Z,5.70
2023-03-15T17:13:32.813Z,4.97
2023-03-15T17:16:01.234Z,4.78
2023-03-15T17:18:30.051Z,5.22
2023-03-15T17:20:58.528Z,5.00
2023-03-15T17:23:25.873Z,5.57
2023-03-15T17:25:53.318Z,5.32
2023-03-15T17:28:21.397Z,4.82
2023-03-15T17:30:51.601Z,5.15
2023-03-15T17:33:25.961Z,5.60
2023-03-15T17:38:30.765Z,6.50
2023-03-15T17:40:58.384Z,4.95
2023-03-15T17:43:26.754Z,5.75
2023-03-15T17:45:54.773Z,5.78
2023-03-15T17:48:22.696Z,6.18
2023-03-15T17:50:52.834Z,5.47
2023-03-15T17:53:21.201Z,5.80
2023-03-15T17:55:49.165Z,4.97
2023-03-15T17:58:19.822Z,5.78
2023-03-15T18:00:48.678Z,6.28
2023-03-15T18:03:16.258Z,7.28
2023-03-15T18:05:43.745Z,5.25
2023-03-15T18:08:13.125Z,6.55
2023-03-15T18:10:42.351Z,6.15
2023-03-15T18:13:18.779Z,5.75
2023-03-15T18:15:50.414Z,6.38
2023-03-15T18:18:17.820Z,7.63
2023-03-15T18:20:45.943Z,6.90
2023-03-15T18:23:14.863Z,7.18
2023-03-15T18:25:42.424Z,7.03
2023-03-15T18:28:11.878Z,7.78
2023-03-15T18:30:40.926Z,7.32
2023-03-15T18:33:10.315Z,8.02
2023-03-15T18:35:37.833Z,9.27
2023-03-15T18:38:05.469Z,8.75
2023-03-15T18:40:33.702Z,8.20
2023-03-15T18:43:01.498Z,10.27
2023-03-15T18:45:31.263Z,12.50
2023-03-15T18:47:59.972Z,11.48
2023-03-15T18:50:28.581Z,11.88
2023-03-15T18:52:56.320Z,12.23
2023-03-15T18:55:23.718Z,11.85
2023-03-15T18:57:52.114Z,10.18
2023-03-15T19:00:26.752Z,11.73
2023-03-15T19:02:56.394Z,11.82
2023-03-15T19:05:24.362Z,10.02
2023-03-15T19:07:51.851Z,9.48
2023-03-15T19:10:19.928Z,9.90
2023-03-15T19:12:48.365Z,11.35
2023-03-15T19:15:17.794Z,12.65
2023-03-15T19:17:46.951Z,11.55
2023-03-15T19:20:24.606Z,11.27
2023-03-15T19:22:53.972Z,11.07
2023-03-15T19:25:21.504Z,11.07
2023-03-15T19:27:54.110Z,9.60
2023-03-15T19:30:22.549Z,9.27
2023-03-15T19:32:50.223Z,7.65
2023-03-15T19:35:19.245Z,8.27
2023-03-15T19:37:47.197Z,6.57
2023-03-15T19:40:19.446Z,7.50
2023-03-15T19:42:48.726Z,6.65
2023-03-15T19:45:16.410Z,7.13
2023-03-15T19:47:44.299Z,6.75
2023-03-15T19:50:12.410Z,6.18
2023-03-15T19:52:46.155Z,6.22
2023-03-15T19:55:18.570Z,7.00
2023-03-15T19:57:45.937Z,7.22
2023-03-15T20:00:16.040Z,7.05
2023-03-15T20:02:43.827Z,7.13
2023-03-15T20:05:18.042Z,6.65
2023-03-15T20:07:47.324Z,6.57
2023-03-15T20:10:14.624Z,7.40
2023-03-15T20:12:43.011Z,7.07
2023-03-15T20:15:11.439Z,7.10
2023-03-15T20:17:39.471Z,6.32
2023-03-15T20:20:11.412Z,8.10
2023-03-15T20:22:41.248Z,7.57
2023-03-15T20:25:17.845Z,7.15
2023-03-15T20:27:45.772Z,7.70
2023-03-15T20:30:14.628Z,8.70
2023-03-15T20:32:43.585Z,10.13
2023-03-15T20:35:12.071Z,10.05
2023-03-15T20:37:40.766Z,9.75
2023-03-15T20:40:14.430Z,10.25
2023-03-15T20:42:48.651Z,10.57
2023-03-15T20:45:16.556Z,10.82
2023-03-15T20:47:43.910Z,10.15
2023-03-15T20:50:12.680Z,11.50
2023-03-15T20:52:40.963Z,12.27
2023-03-15T20:55:10.040Z,12.65
2023-03-15T20:57:41.310Z,13.27
2023-03-15T21:00:13.092Z,11.05
2023-03-15T21:02:40.500Z,12.45
2023-03-15T21:05:09.008Z,12.55
2023-03-15T21:07:39.392Z,12.00
2023-03-15T21:10:06.999Z,11.40
2023-03-15T21:12:34.553Z,9.43
2023-03-15T21:15:06.238Z,10.52
2023-03-15T21:17:33.760Z,9.38
2023-03-15T21:20:01.234Z,7.93
2023-03-15T21:22:28.713Z,8.63
2023-03-15T21:24:56.627Z,8.88
2023-03-15T21:27:26.546Z,8.15
2023-03-15T21:29:56.869Z,8.15
2023-03-15T21:32:24.533Z,7.53
2023-03-15T21:34:51.797Z,7.82
2023-03-15T21:37:19.427Z,7.78
2023-03-15T21:39:46.722Z,8.07
2023-03-15T21:42:14.269Z,7.75
2023-03-15T21:44:41.768Z,8.52
2023-03-15T21:47:11.293Z,7.38
2023-03-15T21:49:40.097Z,7.20
2023-03-15T21:52:07.424Z,7.97
2023-03-15T21:54:36.274Z,7.90
2023-03-15T21:57:04.837Z,7.55
2023-03-15T21:59:39.770Z,8.50
2023-03-15T22:02:08.018Z,9.05
2023-03-15T22:04:35.343Z,9.25
2023-03-15T22:07:04.905Z,10.05
2023-03-15T22:09:32.314Z,12.02
2023-03-15T22:12:07.239Z,13.23
2023-03-15T22:14:37.448Z,12.20
2023-03-15T22:17:05.163Z,13.23
2023-03-15T22:19:38.153Z,11.02
2023-03-15T22:22:05.628Z,11.27
2023-03-15T22:24:34.095Z,12.32
2023-03-15T22:29:31.559Z,9.30
2023-03-15T22:31:58.838Z,9.13
2023-03-15T22:34:27.462Z,9.40
2023-03-15T22:36:54.759Z,9.43
2023-03-15T22:39:23.952Z,8.77
2023-03-15T22:41:51.733Z,9.98
2023-03-15T22:44:20.640Z,9.15
2023-03-15T22:46:49.418Z,8.63
2023-03-15T22:49:16.869Z,9.35
2023-03-15T22:51:44.341Z,8.65
2023-03-15T22:54:11.696Z,8.38
2023-03-15T22:56:46.823Z,8.32
2023-03-15T22:59:14.115Z,10.13
2023-03-15T23:01:41.387Z,9.18
2023-03-15T23:04:08.789Z,9.50
2023-03-15T23:06:36.122Z,9.63
2023-03-15T23:09:06.264Z,9.75
2023-03-15T23:11:34.330Z,9.90
2023-03-15T23:14:01.612Z,9.27
2023-03-15T23:16:34.221Z,10.15
2023-03-15T23:19:03.097Z,9.68
2023-03-15T23:21:30.406Z,9.40
2023-03-15T23:23:58.732Z,9.20
2023-03-15T23:26:26.487Z,9.32
2023-03-15T23:28:54.736Z,9.48
2023-03-15T23:31:23.195Z,10.05
2023-03-15T23:33:50.461Z,10.07
2023-03-15T23:36:18.132Z,10.23
2023-03-15T23:38:45.392Z,11.55
2023-03-15T23:41:15.290Z,11.55
2023-03-15T23:43:42.965Z,11.15
2023-03-15T23:46:10.304Z,10.73
2023-03-15T23:48:38.327Z,12.27
2023-03-15T23:51:05.842Z,11.65
2023-03-15T23:53:35.356Z,14.18
2023-03-15T23:56:02.868Z,14.13
2023-03-15T23:58:30.675Z,13.68
